sensor_id;sensor_type;location;lat;lon;timestamp;P1;durP1;ratioP1;P2;durP2;ratioP2
72464;SDS011;60471;52.150;4.508;2023-08-17T00:00:45;8.95;;;3.38;;
72464;SDS011;60471;52.150;4.508;2023-08-17T00:03:12;10.85;;;3.20;;
72464;SDS011;60471;52.150;4.508;2023-08-17T00:05:39;10.52;;;3.30;;
72464;SDS011;60471;52.150;4.508;2023-08-17T00:08:06;11.90;;;3.95;;
72464;SDS011;60471;52.150;4.508;2023-08-17T00:10:32;10.70;;;3.65;;
72464;SDS011;60471;52.150;4.508;2023-08-17T00:12:59;10.35;;;3.50;;
72464;SDS011;60471;52.150;4.508;2023-08-17T00:15:25;14.95;;;3.53;;
72464;SDS011;60471;52.150;4.508;2023-08-17T00:17:51;8.93;;;3.20;;
72464;SDS011;60471;52.150;4.508;2023-08-17T00:20:17;13.20;;;3.55;;
72464;SDS011;60471;52.150;4.508;2023-08-17T00:22:43;12.63;;;3.60;;
72464;SDS011;60471;52.150;4.508;2023-08-17T00:25:10;11.18;;;3.65;;
72464;SDS011;60471;52.150;4.508;2023-08-17T00:27:36;10.35;;;3.58;;
72464;SDS011;60471;52.150;4.508;2023-08-17T00:30:03;13.35;;;3.40;;
72464;SDS011;60471;52.150;4.508;2023-08-17T00:32:30;9.80;;;3.10;;
72464;SDS011;60471;52.150;4.508;2023-08-17T00:34:56;12.20;;;3.10;;
72464;SDS011;60471;52.150;4.508;2023-08-17T00:37:22;10.35;;;3.28;;
72464;SDS011;60471;52.150;4.508;2023-08-17T00:39:48;9.88;;;2.75;;
72464;SDS011;60471;52.150;4.508;2023-08-17T00:42:15;11.40;;;2.70;;
72464;SDS011;60471;52.150;4.508;2023-08-17T00:44:41;10.82;;;2.92;;
72464;SDS011;60471;52.150;4.508;2023-08-17T00:47:07;8.85;;;2.53;;
72464;SDS011;60471;52.150;4.508;2023-08-17T00:49:33;10.07;;;2.63;;
72464;SDS011;60471;52.150;4.508;2023-08-17T00:52:01;10.32;;;2.88;;
72464;SDS011;60471;52.150;4.508;2023-08-17T00:54:30;9.57;;;2.78;;
72464;SDS011;60471;52.150;4.508;2023-08-17T00:56:57;13.10;;;2.60;;
72464;SDS011;60471;52.150;4.508;2023-08-17T00:59:25;13.95;;;2.90;;
72464;SDS011;60471;52.150;4.508;2023-08-17T01:01:52;9.95;;;2.50;;
72464;SDS011;60471;52.150;4.508;2023-08-17T01:04:18;12.35;;;2.92;;
72464;SDS011;60471;52.150;4.508;2023-08-17T01:06:44;10.95;;;2.60;;
72464;SDS011;60471;52.150;4.508;2023-08-17T01:09:10;9.43;;;2.88;;
72464;SDS011;60471;52.150;4.508;2023-08-17T01:11:59;11.05;;;2.90;;
72464;SDS011;60471;52.150;4.508;2023-08-17T01:14:49;11.63;;;2.95;;
72464;SDS011;60471;52.150;4.508;2023-08-17T01:17:37;10.77;;;3.47;;
72464;SDS011;60471;52.150;4.508;2023-08-17T01:20:10;13.63;;;3.65;;
72464;SDS011;60471;52.150;4.508;2023-08-17T01:22:42;9.73;;;3.20;;
72464;SDS011;60471;52.150;4.508;2023-08-17T01:25:14;11.05;;;3.60;;
72464;SDS011;60471;52.150;4.508;2023-08-17T01:27:41;10.55;;;3.30;;
72464;SDS011;60471;52.150;4.508;2023-08-17T01:30:13;10.85;;;3.15;;
72464;SDS011;60471;52.150;4.508;2023-08-17T01:35:21;16.02;;;3.58;;
72464;SDS011;60471;52.150;4.508;2023-08-17T01:38:00;12.95;;;3.70;;
72464;SDS011;60471;52.150;4.508;2023-08-17T01:40:35;17.60;;;3.97;;
72464;SDS011;60471;52.150;4.508;2023-08-17T01:43:02;14.48;;;3.47;;
72464;SDS011;60471;52.150;4.508;2023-08-17T01:45:29;10.13;;;3.75;;
72464;SDS011;60471;52.150;4.508;2023-08-17T01:47:56;8.18;;;3.00;;
72464;SDS011;60471;52.150;4.508;2023-08-17T01:50:22;10.60;;;3.72;;
72464;SDS011;60471;52.150;4.508;2023-08-17T01:52:48;10.52;;;3.60;;
72464;SDS011;60471;52.150;4.508;2023-08-17T01:55:16;9.77;;;3.45;;
72464;SDS011;60471;52.150;4.508;2023-08-17T01:57:43;9.52;;;3.30;;
72464;SDS011;60471;52.150;4.508;2023-08-17T02:00:09;14.27;;;3.63;;
72464;SDS011;60471;52.150;4.508;2023-08-17T02:02:36;9.88;;;3.15;;
72464;SDS011;60471;52.150;4.508;2023-08-17T02:05:02;12.00;;;3.28;;
72464;SDS011;60471;52.150;4.508;2023-08-17T02:07:29;9.70;;;3.33;;
72464;SDS011;60471;52.150;4.508;2023-08-17T02:09:55;9.90;;;3.42;;
72464;SDS011;60471;52.150;4.508;2023-08-17T02:12:21;10.63;;;3.42;;
72464;SDS011;60471;52.150;4.508;2023-08-17T02:14:48;13.13;;;3.92;;
72464;SDS011;60471;52.150;4.508;2023-08-17T02:17:14;10.65;;;3.85;;
72464;SDS011;60471;52.150;4.508;2023-08-17T02:19:42;14.95;;;3.88;;
72464;SDS011;60471;52.150;4.508;2023-08-17T02:22:09;11.43;;;3.47;;
72464;SDS011;60471;52.150;4.508;2023-08-17T02:24:35;13.77;;;3.85;;
72464;SDS011;60471;52.150;4.508;2023-08-17T02:27:02;13.38;;;3.95;;
72464;SDS011;60471;52.150;4.508;2023-08-17T02:29:28;10.48;;;3.47;;
72464;SDS011;60471;52.150;4.508;2023-08-17T02:31:55;11.20;;;3.35;;
72464;SDS011;60471;52.150;4.508;2023-08-17T02:34:21;11.98;;;3.60;;
72464;SDS011;60471;52.150;4.508;2023-08-17T02:36:47;10.75;;;3.33;;
72464;SDS011;60471;52.150;4.508;2023-08-17T02:39:13;13.18;;;3.33;;
72464;SDS011;60471;52.150;4.508;2023-08-17T02:41:39;12.10;;;2.70;;
72464;SDS011;60471;52.150;4.508;2023-08-17T02:44:06;9.77;;;3.05;;
72464;SDS011;60471;52.150;4.508;2023-08-17T02:46:32;9.52;;;2.80;;
72464;SDS011;60471;52.150;4.508;2023-08-17T02:48:58;9.90;;;3.28;;
72464;SDS011;60471;52.150;4.508;2023-08-17T02:51:25;9.80;;;3.05;;
72464;SDS011;60471;52.150;4.508;2023-08-17T02:53:51;10.73;;;2.78;;
72464;SDS011;60471;52.150;4.508;2023-08-17T02:56:17;8.95;;;2.97;;
72464;SDS011;60471;52.150;4.508;2023-08-17T02:58:43;11.38;;;2.75;;
72464;SDS011;60471;52.150;4.508;2023-08-17T03:01:09;9.35;;;2.78;;
72464;SDS011;60471;52.150;4.508;2023-08-17T03:03:36;9.63;;;2.60;;
72464;SDS011;60471;52.150;4.508;2023-08-17T03:06:02;14.27;;;2.53;;
72464;SDS011;60471;52.150;4.508;2023-08-17T03:08:29;10.98;;;3.00;;
72464;SDS011;60471;52.150;4.508;2023-08-17T03:10:55;9.73;;;2.60;;
72464;SDS011;60471;52.150;4.508;2023-08-17T03:13:21;8.48;;;2.60;;
72464;SDS011;60471;52.150;4.508;2023-08-17T03:15:47;11.90;;;3.08;;
72464;SDS011;60471;52.150;4.508;2023-08-17T03:18:13;10.25;;;2.88;;
72464;SDS011;60471;52.150;4.508;2023-08-17T03:20:40;11.63;;;3.17;;
72464;SDS011;60471;52.150;4.508;2023-08-17T03:23:06;10.95;;;3.08;;
72464;SDS011;60471;52.150;4.508;2023-08-17T03:25:33;9.27;;;2.70;;
72464;SDS011;60471;52.150;4.508;2023-08-17T03:28:00;8.52;;;2.60;;
72464;SDS011;60471;52.150;4.508;2023-08-17T03:30:26;11.30;;;2.88;;
72464;SDS011;60471;52.150;4.508;2023-08-17T03:32:53;10.63;;;3.08;;
72464;SDS011;60471;52.150;4.508;2023-08-17T03:35:19;9.35;;;2.63;;
72464;SDS011;60471;52.150;4.508;2023-08-17T03:37:45;9.70;;;2.50;;
72464;SDS011;60471;52.150;4.508;2023-08-17T03:40:11;12.63;;;2.90;;
72464;SDS011;60471;52.150;4.508;2023-08-17T03:42:38;9.95;;;2.70;;
72464;SDS011;60471;52.150;4.508;2023-08-17T03:45:04;12.88;;;3.08;;
72464;SDS011;60471;52.150;4.508;2023-08-17T03:47:31;11.23;;;2.92;;
72464;SDS011;60471;52.150;4.508;2023-08-17T03:49:57;10.00;;;3.00;;
72464;SDS011;60471;52.150;4.508;2023-08-17T03:52:23;11.63;;;2.95;;
72464;SDS011;60471;52.150;4.508;2023-08-17T03:54:50;11.32;;;3.00;;
72464;SDS011;60471;52.150;4.508;2023-08-17T03:57:16;10.80;;;3.42;;
72464;SDS011;60471;52.150;4.508;2023-08-17T03:59:42;9.32;;;3.20;;
72464;SDS011;60471;52.150;4.508;2023-08-17T04:02:08;9.93;;;2.72;;
72464;SDS011;60471;52.150;4.508;2023-08-17T04:04:34;11.23;;;2.85;;
72464;SDS011;60471;52.150;4.508;2023-08-17T04:07:01;12.48;;;3.55;;
72464;SDS011;60471;52.150;4.508;2023-08-17T04:09:27;11.70;;;3.35;;
72464;SDS011;60471;52.150;4.508;2023-08-17T04:11:53;11.20;;;3.72;;
72464;SDS011;60471;52.150;4.508;2023-08-17T04:14:20;11.55;;;3.38;;
72464;SDS011;60471;52.150;4.508;2023-08-17T04:16:49;9.35;;;2.97;;
72464;SDS011;60471;52.150;4.508;2023-08-17T04:19:18;10.25;;;3.17;;
72464;SDS011;60471;52.150;4.508;2023-08-17T04:21:44;12.50;;;3.30;;
72464;SDS011;60471;52.150;4.508;2023-08-17T04:24:10;13.93;;;3.80;;
72464;SDS011;60471;52.150;4.508;2023-08-17T04:26:36;10.88;;;3.03;;
72464;SDS011;60471;52.150;4.508;2023-08-17T04:29:04;11.88;;;3.25;;
72464;SDS011;60471;52.150;4.508;2023-08-17T04:31:30;12.38;;;3.20;;
72464;SDS011;60471;52.150;4.508;2023-08-17T04:33:56;13.77;;;3.30;;
72464;SDS011;60471;52.150;4.508;2023-08-17T04:36:23;11.98;;;3.35;;
72464;SDS011;60471;52.150;4.508;2023-08-17T04:38:49;13.68;;;3.28;;
72464;SDS011;60471;52.150;4.508;2023-08-17T04:41:15;9.32;;;3.30;;
72464;SDS011;60471;52.150;4.508;2023-08-17T04:43:42;12.35;;;3.03;;
72464;SDS011;60471;52.150;4.508;2023-08-17T04:46:08;11.13;;;3.60;;
72464;SDS011;60471;52.150;4.508;2023-08-17T04:48:35;11.73;;;3.45;;
72464;SDS011;60471;52.150;4.508;2023-08-17T04:51:01;13.30;;;3.60;;
72464;SDS011;60471;52.150;4.508;2023-08-17T04:53:28;13.00;;;3.08;;
72464;SDS011;60471;52.150;4.508;2023-08-17T04:55:54;10.52;;;2.90;;
72464;SDS011;60471;52.150;4.508;2023-08-17T04:58:20;12.80;;;3.22;;
72464;SDS011;60471;52.150;4.508;2023-08-17T05:00:48;11.27;;;3.03;;
72464;SDS011;60471;52.150;4.508;2023-08-17T05:03:14;12.82;;;3.22;;
72464;SDS011;60471;52.150;4.508;2023-08-17T05:05:40;11.45;;;3.10;;
72464;SDS011;60471;52.150;4.508;2023-08-17T05:08:06;9.20;;;3.15;;
72464;SDS011;60471;52.150;4.508;2023-08-17T05:10:33;11.73;;;3.28;;
72464;SDS011;60471;52.150;4.508;2023-08-17T05:12:59;11.82;;;3.10;;
72464;SDS011;60471;52.150;4.508;2023-08-17T05:15:25;10.57;;;2.90;;
72464;SDS011;60471;52.150;4.508;2023-08-17T05:17:51;9.35;;;2.85;;
72464;SDS011;60471;52.150;4.508;2023-08-17T05:20:18;11.88;;;3.30;;
72464;SDS011;60471;52.150;4.508;2023-08-17T05:22:46;12.32;;;3.20;;
72464;SDS011;60471;52.150;4.508;2023-08-17T05:25:13;10.68;;;2.63;;
72464;SDS011;60471;52.150;4.508;2023-08-17T05:27:39;9.73;;;2.75;;
72464;SDS011;60471;52.150;4.508;2023-08-17T05:30:06;12.50;;;3.20;;
72464;SDS011;60471;52.150;4.508;2023-08-17T05:32:33;12.27;;;3.17;;
72464;SDS011;60471;52.150;4.508;2023-08-17T05:34:59;12.38;;;2.90;;
72464;SDS011;60471;52.150;4.508;2023-08-17T05:37:25;11.15;;;2.60;;
72464;SDS011;60471;52.150;4.508;2023-08-17T05:39:51;10.18;;;2.83;;
72464;SDS011;60471;52.150;4.508;2023-08-17T05:42:18;10.88;;;2.60;;
72464;SDS011;60471;52.150;4.508;2023-08-17T05:44:44;11.05;;;3.05;;
72464;SDS011;60471;52.150;4.508;2023-08-17T05:47:10;10.30;;;3.00;;
72464;SDS011;60471;52.150;4.508;2023-08-17T05:49:38;10.07;;;2.90;;
72464;SDS011;60471;52.150;4.508;2023-08-17T05:52:04;10.52;;;2.58;;
72464;SDS011;60471;52.150;4.508;2023-08-17T05:54:31;9.48;;;2.63;;
72464;SDS011;60471;52.150;4.508;2023-08-17T05:56:57;9.27;;;2.88;;
72464;SDS011;60471;52.150;4.508;2023-08-17T05:59:23;10.25;;;3.40;;
72464;SDS011;60471;52.150;4.508;2023-08-17T06:01:50;9.98;;;3.13;;
72464;SDS011;60471;52.150;4.508;2023-08-17T06:04:16;9.77;;;2.78;;
72464;SDS011;60471;52.150;4.508;2023-08-17T06:06:42;12.65;;;3.63;;
72464;SDS011;60471;52.150;4.508;2023-08-17T06:09:08;11.85;;;2.90;;
72464;SDS011;60471;52.150;4.508;2023-08-17T06:11:35;9.35;;;3.10;;
72464;SDS011;60471;52.150;4.508;2023-08-17T06:14:01;12.98;;;3.30;;
72464;SDS011;60471;52.150;4.508;2023-08-17T06:16:28;12.88;;;3.58;;
72464;SDS011;60471;52.150;4.508;2023-08-17T06:18:54;11.75;;;3.80;;
72464;SDS011;60471;52.150;4.508;2023-08-17T06:21:20;10.45;;;3.33;;
72464;SDS011;60471;52.150;4.508;2023-08-17T06:23:46;11.35;;;3.60;;
72464;SDS011;60471;52.150;4.508;2023-08-17T06:26:12;10.38;;;2.97;;
72464;SDS011;60471;52.150;4.508;2023-08-17T06:28:39;12.23;;;3.38;;
72464;SDS011;60471;52.150;4.508;2023-08-17T06:31:05;11.57;;;2.90;;
72464;SDS011;60471;52.150;4.508;2023-08-17T06:33:31;13.77;;;3.10;;
72464;SDS011;60471;52.150;4.508;2023-08-17T06:35:58;11.80;;;3.58;;
72464;SDS011;60471;52.150;4.508;2023-08-17T06:38:24;10.30;;;3.20;;
72464;SDS011;60471;52.150;4.508;2023-08-17T06:40:51;15.52;;;3.58;;
72464;SDS011;60471;52.150;4.508;2023-08-17T06:43:18;12.90;;;3.42;;
72464;SDS011;60471;52.150;4.508;2023-08-17T06:45:46;10.68;;;3.40;;
72464;SDS011;60471;52.150;4.508;2023-08-17T06:48:12;14.23;;;3.95;;
72464;SDS011;60471;52.150;4.508;2023-08-17T06:50:39;12.40;;;3.35;;
72464;SDS011;60471;52.150;4.508;2023-08-17T06:53:05;12.32;;;3.58;;
72464;SDS011;60471;52.150;4.508;2023-08-17T06:55:31;12.88;;;3.20;;
72464;SDS011;60471;52.150;4.508;2023-08-17T06:57:57;10.68;;;2.88;;
72464;SDS011;60471;52.150;4.508;2023-08-17T07:00:23;10.57;;;3.17;;
72464;SDS011;60471;52.150;4.508;2023-08-17T07:02:50;9.35;;;2.85;;
72464;SDS011;60471;52.150;4.508;2023-08-17T07:05:17;11.93;;;3.00;;
72464;SDS011;60471;52.150;4.508;2023-08-17T07:07:44;11.95;;;3.30;;
72464;SDS011;60471;52.150;4.508;2023-08-17T07:10:10;12.25;;;3.05;;
72464;SDS011;60471;52.150;4.508;2023-08-17T07:12:37;9.45;;;2.42;;
72464;SDS011;60471;52.150;4.508;2023-08-17T07:15:04;8.88;;;2.38;;
72464;SDS011;60471;52.150;4.508;2023-08-17T07:17:31;11.27;;;2.63;;
72464;SDS011;60471;52.150;4.508;2023-08-17T07:19:59;12.77;;;2.63;;
72464;SDS011;60471;52.150;4.508;2023-08-17T07:22:26;10.85;;;2.70;;
72464;SDS011;60471;52.150;4.508;2023-08-17T07:24:52;9.38;;;2.45;;
72464;SDS011;60471;52.150;4.508;2023-08-17T07:27:18;12.57;;;2.40;;
72464;SDS011;60471;52.150;4.508;2023-08-17T07:29:44;11.23;;;2.38;;
72464;SDS011;60471;52.150;4.508;2023-08-17T07:32:10;10.68;;;2.63;;
72464;SDS011;60471;52.150;4.508;2023-08-17T07:34:37;13.35;;;2.53;;
72464;SDS011;60471;52.150;4.508;2023-08-17T07:37:04;9.45;;;2.22;;
72464;SDS011;60471;52.150;4.508;2023-08-17T07:39:32;10.07;;;1.92;;
72464;SDS011;60471;52.150;4.508;2023-08-17T07:41:58;7.75;;;2.10;;
72464;SDS011;60471;52.150;4.508;2023-08-17T07:44:25;12.85;;;2.40;;
72464;SDS011;60471;52.150;4.508;2023-08-17T07:46:51;9.65;;;2.50;;
72464;SDS011;60471;52.150;4.508;2023-08-17T07:49:17;9.88;;;2.55;;
72464;SDS011;60471;52.150;4.508;2023-08-17T07:51:44;14.50;;;2.60;;
72464;SDS011;60471;52.150;4.508;2023-08-17T07:54:10;8.32;;;2.20;;
72464;SDS011;60471;52.150;4.508;2023-08-17T07:56:36;10.90;;;2.47;;
72464;SDS011;60471;52.150;4.508;2023-08-17T07:59:03;10.15;;;2.90;;
72464;SDS011;60471;52.150;4.508;2023-08-17T08:01:29;8.98;;;2.53;;
72464;SDS011;60471;52.150;4.508;2023-08-17T08:03:55;9.98;;;2.47;;
72464;SDS011;60471;52.150;4.508;2023-08-17T08:06:21;7.85;;;1.73;;
72464;SDS011;60471;52.150;4.508;2023-08-17T08:08:48;10.35;;;2.15;;
72464;SDS011;60471;52.150;4.508;2023-08-17T08:11:15;10.38;;;1.98;;
72464;SDS011;60471;52.150;4.508;2023-08-17T08:13:41;9.75;;;2.22;;
72464;SDS011;60471;52.150;4.508;2023-08-17T08:16:07;9.85;;;1.92;;
72464;SDS011;60471;52.150;4.508;2023-08-17T08:18:36;10.00;;;1.98;;
72464;SDS011;60471;52.150;4.508;2023-08-17T08:21:02;11.40;;;2.20;;
72464;SDS011;60471;52.150;4.508;2023-08-17T08:23:28;9.35;;;2.20;;
72464;SDS011;60471;52.150;4.508;2023-08-17T08:25:55;10.73;;;2.33;;
72464;SDS011;60471;52.150;4.508;2023-08-17T08:28:21;8.77;;;2.25;;
72464;SDS011;60471;52.150;4.508;2023-08-17T08:30:47;7.38;;;2.03;;
72464;SDS011;60471;52.150;4.508;2023-08-17T08:33:13;12.98;;;2.38;;
72464;SDS011;60471;52.150;4.508;2023-08-17T08:35:40;11.15;;;2.10;;
72464;SDS011;60471;52.150;4.508;2023-08-17T08:38:06;8.25;;;1.70;;
72464;SDS011;60471;52.150;4.508;2023-08-17T08:40:32;8.18;;;1.90;;
72464;SDS011;60471;52.150;4.508;2023-08-17T08:43:03;9.27;;;2.00;;
72464;SDS011;60471;52.150;4.508;2023-08-17T08:45:29;13.85;;;2.13;;
72464;SDS011;60471;52.150;4.508;2023-08-17T08:47:56;9.70;;;2.08;;
72464;SDS011;60471;52.150;4.508;2023-08-17T08:50:26;9.45;;;2.20;;
72464;SDS011;60471;52.150;4.508;2023-08-17T08:53:00;8.73;;;2.33;;
72464;SDS011;60471;52.150;4.508;2023-08-17T08:55:32;11.48;;;2.08;;
72464;SDS011;60471;52.150;4.508;2023-08-17T08:58:04;7.88;;;2.00;;
72464;SDS011;60471;52.150;4.508;2023-08-17T09:00:33;11.43;;;2.10;;
72464;SDS011;60471;52.150;4.508;2023-08-17T09:03:01;8.60;;;2.40;;
72464;SDS011;60471;52.150;4.508;2023-08-17T09:05:31;9.70;;;2.47;;
72464;SDS011;60471;52.150;4.508;2023-08-17T09:08:00;9.82;;;2.38;;
72464;SDS011;60471;52.150;4.508;2023-08-17T09:10:28;10.02;;;2.15;;
72464;SDS011;60471;52.150;4.508;2023-08-17T09:12:54;9.95;;;2.47;;
72464;SDS011;60471;52.150;4.508;2023-08-17T09:15:21;12.95;;;2.40;;
72464;SDS011;60471;52.150;4.508;2023-08-17T09:17:48;9.93;;;2.50;;
72464;SDS011;60471;52.150;4.508;2023-08-17T09:25:41;9.55;;;2.17;;
72464;SDS011;60471;52.150;4.508;2023-08-17T09:28:11;10.60;;;2.60;;
72464;SDS011;60471;52.150;4.508;2023-08-17T09:31:01;11.48;;;2.25;;
72464;SDS011;60471;52.150;4.508;2023-08-17T09:33:31;7.85;;;2.20;;
72464;SDS011;60471;52.150;4.508;2023-08-17T09:35:58;11.38;;;1.98;;
72464;SDS011;60471;52.150;4.508;2023-08-17T09:38:26;9.73;;;2.42;;
72464;SDS011;60471;52.150;4.508;2023-08-17T09:40:53;12.23;;;2.65;;
72464;SDS011;60471;52.150;4.508;2023-08-17T09:43:20;10.60;;;1.90;;
72464;SDS011;60471;52.150;4.508;2023-08-17T09:45:47;9.32;;;1.75;;
72464;SDS011;60471;52.150;4.508;2023-08-17T09:48:15;13.50;;;2.30;;
72464;SDS011;60471;52.150;4.508;2023-08-17T09:50:44;13.57;;;2.45;;
72464;SDS011;60471;52.150;4.508;2023-08-17T09:53:17;13.48;;;2.40;;
72464;SDS011;60471;52.150;4.508;2023-08-17T09:55:45;11.02;;;2.35;;
72464;SDS011;60471;52.150;4.508;2023-08-17T09:58:12;11.38;;;2.00;;
72464;SDS011;60471;52.150;4.508;2023-08-17T10:00:43;15.02;;;2.13;;
72464;SDS011;60471;52.150;4.508;2023-08-17T10:03:13;11.73;;;2.58;;
72464;SDS011;60471;52.150;4.508;2023-08-17T10:05:42;9.60;;;2.10;;
72464;SDS011;60471;52.150;4.508;2023-08-17T10:08:12;8.50;;;1.88;;
72464;SDS011;60471;52.150;4.508;2023-08-17T10:10:47;9.85;;;2.10;;
72464;SDS011;60471;52.150;4.508;2023-08-17T10:13:17;13.77;;;2.13;;
72464;SDS011;60471;52.150;4.508;2023-08-17T10:16:17;10.10;;;1.90;;
72464;SDS011;60471;52.150;4.508;2023-08-17T10:21:48;10.48;;;2.15;;
72464;SDS011;60471;52.150;4.508;2023-08-17T10:24:26;10.63;;;1.77;;
72464;SDS011;60471;52.150;4.508;2023-08-17T10:26:54;8.10;;;1.83;;
72464;SDS011;60471;52.150;4.508;2023-08-17T10:29:22;10.73;;;2.17;;
72464;SDS011;60471;52.150;4.508;2023-08-17T10:31:49;9.13;;;2.05;;
72464;SDS011;60471;52.150;4.508;2023-08-17T10:34:17;9.70;;;1.80;;
72464;SDS011;60471;52.150;4.508;2023-08-17T10:36:43;20.05;;;2.10;;
72464;SDS011;60471;52.150;4.508;2023-08-17T10:39:21;11.73;;;2.05;;
72464;SDS011;60471;52.150;4.508;2023-08-17T10:41:49;8.70;;;2.00;;
72464;SDS011;60471;52.150;4.508;2023-08-17T10:44:17;6.95;;;1.77;;
72464;SDS011;60471;52.150;4.508;2023-08-17T10:49:52;8.25;;;1.60;;
72464;SDS011;60471;52.150;4.508;2023-08-17T10:55:02;12.07;;;2.67;;
72464;SDS011;60471;52.150;4.508;2023-08-17T10:57:39;8.90;;;1.80;;
72464;SDS011;60471;52.150;4.508;2023-08-17T11:00:19;8.95;;;2.17;;
72464;SDS011;60471;52.150;4.508;2023-08-17T11:02:53;11.18;;;1.98;;
72464;SDS011;60471;52.150;4.508;2023-08-17T11:11:07;9.85;;;1.77;;
72464;SDS011;60471;52.150;4.508;2023-08-17T11:13:38;10.03;;;1.73;;
72464;SDS011;60471;52.150;4.508;2023-08-17T11:16:07;10.50;;;2.00;;
72464;SDS011;60471;52.150;4.508;2023-08-17T11:18:35;9.20;;;2.00;;
72464;SDS011;60471;52.150;4.508;2023-08-17T11:21:02;9.95;;;2.38;;
72464;SDS011;60471;52.150;4.508;2023-08-17T11:23:31;10.10;;;2.10;;
72464;SDS011;60471;52.150;4.508;2023-08-17T11:26:00;7.32;;;2.10;;
72464;SDS011;60471;52.150;4.508;2023-08-17T11:28:28;9.55;;;1.83;;
72464;SDS011;60471;52.150;4.508;2023-08-17T11:31:05;21.25;;;2.60;;
72464;SDS011;60471;52.150;4.508;2023-08-17T11:33:34;9.10;;;2.25;;
72464;SDS011;60471;52.150;4.508;2023-08-17T11:36:04;9.07;;;2.30;;
72464;SDS011;60471;52.150;4.508;2023-08-17T11:38:37;10.63;;;2.50;;
72464;SDS011;60471;52.150;4.508;2023-08-17T11:41:09;13.07;;;2.70;;
72464;SDS011;60471;52.150;4.508;2023-08-17T11:43:37;9.80;;;2.55;;
72464;SDS011;60471;52.150;4.508;2023-08-17T11:46:03;7.85;;;1.80;;
72464;SDS011;60471;52.150;4.508;2023-08-17T11:48:30;9.65;;;2.38;;
72464;SDS011;60471;52.150;4.508;2023-08-17T11:50:57;8.82;;;2.08;;
72464;SDS011;60471;52.150;4.508;2023-08-17T11:53:24;9.70;;;2.53;;
72464;SDS011;60471;52.150;4.508;2023-08-17T11:55:50;12.02;;;2.40;;
72464;SDS011;60471;52.150;4.508;2023-08-17T11:58:17;11.13;;;2.55;;
72464;SDS011;60471;52.150;4.508;2023-08-17T12:01:01;10.52;;;2.83;;
72464;SDS011;60471;52.150;4.508;2023-08-17T12:03:28;10.82;;;2.47;;
72464;SDS011;60471;52.150;4.508;2023-08-17T12:05:55;9.43;;;2.10;;
72464;SDS011;60471;52.150;4.508;2023-08-17T12:08:21;15.70;;;2.70;;
72464;SDS011;60471;52.150;4.508;2023-08-17T12:10:48;11.38;;;2.88;;
72464;SDS011;60471;52.150;4.508;2023-08-17T12:13:14;10.18;;;2.10;;
72464;SDS011;60471;52.150;4.508;2023-08-17T12:15:40;8.38;;;1.88;;
72464;SDS011;60471;52.150;4.508;2023-08-17T12:18:08;10.23;;;2.45;;
72464;SDS011;60471;52.150;4.508;2023-08-17T12:20:34;7.80;;;2.28;;
72464;SDS011;60471;52.150;4.508;2023-08-17T12:23:03;11.82;;;2.42;;
72464;SDS011;60471;52.150;4.508;2023-08-17T12:25:29;9.18;;;2.15;;
72464;SDS011;60471;52.150;4.508;2023-08-17T12:27:59;9.07;;;1.92;;
72464;SDS011;60471;52.150;4.508;2023-08-17T12:30:30;9.70;;;2.10;;
72464;SDS011;60471;52.150;4.508;2023-08-17T12:32:58;8.50;;;2.30;;
72464;SDS011;60471;52.150;4.508;2023-08-17T12:35:25;10.98;;;2.33;;
72464;SDS011;60471;52.150;4.508;2023-08-17T12:37:52;9.13;;;1.90;;
72464;SDS011;60471;52.150;4.508;2023-08-17T12:40:19;11.25;;;2.20;;
72464;SDS011;60471;52.150;4.508;2023-08-17T12:42:46;8.52;;;1.98;;
72464;SDS011;60471;52.150;4.508;2023-08-17T12:45:13;9.23;;;2.00;;
72464;SDS011;60471;52.150;4.508;2023-08-17T12:47:41;16.35;;;2.78;;
72464;SDS011;60471;52.150;4.508;2023-08-17T12:50:08;11.32;;;2.17;;
72464;SDS011;60471;52.150;4.508;2023-08-17T12:52:34;15.63;;;2.10;;
72464;SDS011;60471;52.150;4.508;2023-08-17T12:55:01;11.88;;;2.50;;
72464;SDS011;60471;52.150;4.508;2023-08-17T12:57:27;13.32;;;2.38;;
72464;SDS011;60471;52.150;4.508;2023-08-17T12:59:54;13.30;;;2.40;;
72464;SDS011;60471;52.150;4.508;2023-08-17T13:02:20;9.43;;;2.40;;
72464;SDS011;60471;52.150;4.508;2023-08-17T13:04:47;11.65;;;2.30;;
72464;SDS011;60471;52.150;4.508;2023-08-17T13:07:13;9.95;;;2.20;;
72464;SDS011;60471;52.150;4.508;2023-08-17T13:09:41;10.57;;;2.05;;
72464;SDS011;60471;52.150;4.508;2023-08-17T13:12:07;8.98;;;2.20;;
72464;SDS011;60471;52.150;4.508;2023-08-17T13:14:34;9.05;;;2.03;;
72464;SDS011;60471;52.150;4.508;2023-08-17T13:17:00;8.85;;;2.30;;
72464;SDS011;60471;52.150;4.508;2023-08-17T13:19:26;7.40;;;1.77;;
72464;SDS011;60471;52.150;4.508;2023-08-17T13:21:52;12.68;;;2.10;;
72464;SDS011;60471;52.150;4.508;2023-08-17T13:24:19;7.68;;;1.90;;
72464;SDS011;60471;52.150;4.508;2023-08-17T13:26:45;9.65;;;2.10;;
72464;SDS011;60471;52.150;4.508;2023-08-17T13:29:11;11.50;;;2.30;;
72464;SDS011;60471;52.150;4.508;2023-08-17T13:31:37;10.75;;;2.50;;
72464;SDS011;60471;52.150;4.508;2023-08-17T13:34:03;8.90;;;2.17;;
72464;SDS011;60471;52.150;4.508;2023-08-17T13:36:30;8.77;;;2.03;;
72464;SDS011;60471;52.150;4.508;2023-08-17T13:38:56;8.25;;;1.75;;
72464;SDS011;60471;52.150;4.508;2023-08-17T13:41:22;13.50;;;2.40;;
72464;SDS011;60471;52.150;4.508;2023-08-17T13:43:50;11.15;;;2.65;;
72464;SDS011;60471;52.150;4.508;2023-08-17T13:46:17;13.48;;;3.00;;
72464;SDS011;60471;52.150;4.508;2023-08-17T13:48:43;7.45;;;2.10;;
72464;SDS011;60471;52.150;4.508;2023-08-17T13:51:09;11.88;;;2.78;;
72464;SDS011;60471;52.150;4.508;2023-08-17T13:53:37;9.85;;;2.47;;
72464;SDS011;60471;52.150;4.508;2023-08-17T13:56:03;10.75;;;2.40;;
72464;SDS011;60471;52.150;4.508;2023-08-17T13:58:29;10.18;;;2.45;;
72464;SDS011;60471;52.150;4.508;2023-08-17T14:00:56;14.02;;;2.92;;
72464;SDS011;60471;52.150;4.508;2023-08-17T14:03:25;11.85;;;3.17;;
72464;SDS011;60471;52.150;4.508;2023-08-17T14:05:51;16.52;;;2.70;;
72464;SDS011;60471;52.150;4.508;2023-08-17T14:08:18;10.18;;;2.70;;
72464;SDS011;60471;52.150;4.508;2023-08-17T14:10:44;10.45;;;2.45;;
72464;SDS011;60471;52.150;4.508;2023-08-17T14:13:10;12.32;;;2.92;;
72464;SDS011;60471;52.150;4.508;2023-08-17T14:15:36;9.85;;;2.50;;
72464;SDS011;60471;52.150;4.508;2023-08-17T14:18:02;8.95;;;3.08;;
72464;SDS011;60471;52.150;4.508;2023-08-17T14:20:29;10.25;;;2.70;;
72464;SDS011;60471;52.150;4.508;2023-08-17T14:22:55;11.48;;;3.00;;
72464;SDS011;60471;52.150;4.508;2023-08-17T14:25:22;9.90;;;2.50;;
72464;SDS011;60471;52.150;4.508;2023-08-17T14:27:48;9.73;;;3.22;;
72464;SDS011;60471;52.150;4.508;2023-08-17T14:30:14;9.05;;;2.50;;
72464;SDS011;60471;52.150;4.508;2023-08-17T14:32:41;12.13;;;2.80;;
72464;SDS011;60471;52.150;4.508;2023-08-17T14:35:07;12.30;;;2.78;;
72464;SDS011;60471;52.150;4.508;2023-08-17T14:37:33;9.85;;;2.90;;
72464;SDS011;60471;52.150;4.508;2023-08-17T14:40:00;11.27;;;3.50;;
72464;SDS011;60471;52.150;4.508;2023-08-17T14:42:26;10.57;;;3.15;;
72464;SDS011;60471;52.150;4.508;2023-08-17T14:44:53;12.55;;;3.25;;
72464;SDS011;60471;52.150;4.508;2023-08-17T14:47:19;10.00;;;2.70;;
72464;SDS011;60471;52.150;4.508;2023-08-17T14:49:46;8.93;;;2.70;;
72464;SDS011;60471;52.150;4.508;2023-08-17T14:52:12;11.45;;;2.60;;
72464;SDS011;60471;52.150;4.508;2023-08-17T14:54:38;10.80;;;2.90;;
72464;SDS011;60471;52.150;4.508;2023-08-17T14:57:04;14.07;;;3.00;;
72464;SDS011;60471;52.150;4.508;2023-08-17T14:59:30;14.90;;;2.80;;
72464;SDS011;60471;52.150;4.508;2023-08-17T15:01:57;12.60;;;3.08;;